Avi Salvador — EA6682 — position and weather

sailwx.info

Track history (hours):
 
Tides and Currents Weather Stations Pressure Air Temp Water Temp Dewpoint Dewpoint Depression Visibility Wind Speed Wind Dir Waves Ship Positions

Avi Salvador

Last reported at 2017-Oct-18 13:49 UTC. Time now 2017-Oct-18 15:16 UTC.
Position N 41°13' E 001°44'.

Length 22 m.

Type: Fishing. MMSI: 224011150.

Date/timePositionNaut miles runAvg speedWind from/ knotsBaromVisibWave heightAir tempDewpointWater temp
2017-Oct-18 13:49N 41°13' E 001°44'0 0.9
2017-Oct-18 13:30N 41°13' E 001°44'5 9.2
2017-Oct-18 13:00N 41°08' E 001°43'5 9.3
2017-Oct-18 12:30N 41°04' E 001°42'1 1.3
2017-Oct-18 11:24N 41°02' E 001°42'1 2.3
2017-Oct-18 11:00N 41°03' E 001°43'1 2.4
2017-Oct-18 10:30N 41°04' E 001°43'1 1.4
2017-Oct-18 10:00N 41°05' E 001°43'3 2.3
2017-Oct-18 08:45N 41°02' E 001°42'1 2.2
2017-Oct-18 08:21N 41°03' E 001°43'1 2.3
2017-Oct-18 07:56N 41°04' E 001°43'2 1.4
2017-Oct-18 06:35N 41°02' E 001°42'1 2.2
2017-Oct-18 06:10N 41°03' E 001°43'0 2.4
2017-Oct-18 06:00N 41°03' E 001°43'2 3.4
2017-Oct-18 05:30N 41°05' E 001°44'4 9.0
2017-Oct-18 05:00N 41°09' E 001°44'3 6.2
2017-Oct-18 04:30N 41°12' E 001°44'1 1.3
2017-Oct-18 04:00N 41°13' E 001°44'0 0.0
2017-Oct-17 14:29N 41°13' E 001°44'5 9.9
2017-Oct-17 14:01N 41°08' E 001°43'511.0
2017-Oct-17 13:31N 41°03' E 001°42'0 0.2
2017-Oct-17 12:21N 41°03' E 001°43'1 2.3
2017-Oct-17 11:54N 41°04' E 001°43'0 0.6
2017-Oct-17 11:31N 41°04' E 001°43'2 2.0
2017-Oct-17 10:39N 41°02' E 001°42'1 2.2
2017-Oct-17 10:25N 41°03' E 001°43'1 2.3
2017-Oct-17 09:55N 41°04' E 001°43'0 0.6
2017-Oct-17 09:31N 41°04' E 001°43'2 2.3
2017-Oct-17 08:44N 41°02' E 001°42'1 2.2
2017-Oct-17 08:23N 41°03' E 001°43'1 2.2
2017-Oct-17 07:48N 41°04' E 001°43'0 0.7
2017-Oct-17 07:30N 41°04' E 001°43'2 2.1
2017-Oct-17 06:35N 41°02' E 001°42'0 2.1
2017-Oct-17 06:22N 41°02' E 001°43'1 2.3
2017-Oct-17 06:00N 41°03' E 001°43'2 3.2
2017-Oct-17 05:30N 41°05' E 001°44'5 9.2
2017-Oct-17 05:01N 41°09' E 001°43'4 7.0
2017-Oct-17 04:30N 41°13' E 001°44'0 0.1
2017-Oct-17 04:00N 41°13' E 001°44'0 0.0
2017-Oct-16 14:26N 41°13' E 001°44'910.1
2017-Oct-16 13:30N 41°04' E 001°43'2 1.8
2017-Oct-16 12:39N 41°02' E 001°42'0 2.1
2017-Oct-16 12:27N 41°02' E 001°43'1 2.3
2017-Oct-16 11:58N 41°03' E 001°43'0 0.6
2017-Oct-16 11:30N 41°03' E 001°43'2 2.8
2017-Oct-16 10:54N 41°02' E 001°42'1 2.2
2017-Oct-16 10:29N 41°03' E 001°43'1 2.1
2017-Oct-16 10:00N 41°04' E 001°43'2 3.1
2017-Oct-16 09:30N 41°02' E 001°42'0 0.6
2017-Oct-16 08:59N 41°02' E 001°42'1 2.2
2017-Oct-16 08:28N 41°03' E 001°43'1 2.2
2017-Oct-16 08:00N 41°04' E 001°43'2 3.6
2017-Oct-16 07:30N 41°02' E 001°42'0 0.5
2017-Oct-16 06:49N 41°02' E 001°42'1 2.1
2017-Oct-16 06:30N 41°02' E 001°43'1 2.3
2017-Oct-16 05:59N 41°04' E 001°43'2 3.3
2017-Oct-16 05:30N 41°05' E 001°44'4 8.6
2017-Oct-16 05:00N 41°09' E 001°44'3 5.9
2017-Oct-16 04:30N 41°12' E 001°44'1 1.3
2017-Oct-16 04:00N 41°13' E 001°44'  
2017-Oct-13 14:08N 41°13' E 001°44'0 0.3
2017-Oct-13 14:00N 41°13' E 001°44'3 6.9
2017-Oct-13 13:31N 41°10' E 001°44'510.4
2017-Oct-13 13:00N 41°04' E 001°43'3 2.0
2017-Oct-13 11:39N 41°02' E 001°43'0 2.1
2017-Oct-13 11:29N 41°02' E 001°43'1 2.3
2017-Oct-13 10:55N 41°03' E 001°43'1 2.3
2017-Oct-13 10:30N 41°04' E 001°44'1 1.4
2017-Oct-13 10:00N 41°03' E 001°44'2 2.0
2017-Oct-13 09:10N 41°02' E 001°43'1 2.2
2017-Oct-13 08:49N 41°03' E 001°43'1 2.3
2017-Oct-13 08:30N 41°03' E 001°44'2 3.0
2017-Oct-13 08:00N 41°05' E 001°44'3 3.0
2017-Oct-13 06:56N 41°02' E 001°43'1 2.2
2017-Oct-13 06:29N 41°03' E 001°43'1 2.3
2017-Oct-13 05:59N 41°04' E 001°44'2 3.3
2017-Oct-13 05:30N 41°05' E 001°44'5 9.5
2017-Oct-13 05:01N 41°10' E 001°44'2 5.0
2017-Oct-13 04:31N 41°12' E 001°44'1 1.5
2017-Oct-13 04:00N 41°13' E 001°44'  
2017-Oct-10 14:01N 41°11' E 001°44'5 9.9
2017-Oct-10 13:30N 41°06' E 001°44'4 2.2
2017-Oct-10 11:40N 41°02' E 001°43'1 2.3
2017-Oct-10 11:24N 41°03' E 001°43'1 2.4
2017-Oct-10 11:00N 41°04' E 001°44'0 0.6
2017-Oct-10 10:30N 41°04' E 001°44'3 3.8
2017-Oct-10 09:48N 41°02' E 001°43'1 2.1
2017-Oct-10 09:22N 41°03' E 001°43'1 2.3
2017-Oct-10 08:58N 41°03' E 001°44'1 2.2
2017-Oct-10 08:30N 41°04' E 001°44'2 4.0
2017-Oct-10 07:59N 41°02' E 001°43'1 1.1
2017-Oct-10 07:19N 41°02' E 001°43'1 2.1
2017-Oct-10 06:56N 41°02' E 001°43'1 2.3
2017-Oct-10 06:29N 41°03' E 001°44'1 2.5
2017-Oct-10 06:00N 41°04' E 001°44'2 4.2
2017-Oct-10 05:30N 41°07' E 001°44'4 7.6
2017-Oct-10 05:00N 41°10' E 001°44'3 5.1
2017-Oct-10 04:30N 41°13' E 001°44'0 0.3
2017-Oct-10 04:00N 41°13' E 001°44'0 0.0
2017-Oct-09 14:12N 41°13' E 001°44'1 4.5
2017-Oct-09 14:00N 41°12' E 001°44'5 9.1
2017-Oct-09 13:30N 41°08' E 001°43'4 9.0
2017-Oct-09 13:00N 41°03' E 001°42'1 1.0
2017-Oct-09 11:42N 41°02' E 001°42'1 2.1
2017-Oct-09 11:14N 41°03' E 001°43'1 2.3
2017-Oct-09 11:00N 41°03' E 001°43'1 2.2
2017-Oct-09 10:31N 41°04' E 001°43'1 0.7
2017-Oct-09 08:47N 41°03' E 001°43'1 2.5
2017-Oct-09 08:30N 41°04' E 001°43'1 1.0
2017-Oct-09 07:59N 41°04' E 001°43'2 1.5
2017-Oct-09 06:50N 41°03' E 001°43'1 2.3
2017-Oct-09 06:26N 41°03' E 001°44'1 2.4
2017-Oct-09 06:00N 41°04' E 001°44'2 3.7
2017-Oct-09 05:30N 41°06' E 001°44'4 7.8
2017-Oct-09 05:00N 41°10' E 001°44'3 5.4
2017-Oct-09 04:30N 41°13' E 001°44'0 0.3
2017-Oct-09 04:00N 41°13' E 001°44'  
Track history (hours):
 
Tides and Currents Weather Stations Pressure Air Temp Water Temp Dewpoint Dewpoint Depression Visibility Wind Speed Wind Dir Waves Ship Positions

Avi Salvador

Last reported at 2017-Oct-18 13:49 UTC. Time now 2017-Oct-18 15:16 UTC.
Position N 41°13' E 001°44'.

Length 22 m.

Type: Fishing. MMSI: 224011150.

Date/timePositionNaut miles runAvg speedWind from/ knotsBaromVisibWave heightAir tempDewpointWater temp
2017-Oct-18 13:49N 41°13' E 001°44'0 0.9
2017-Oct-18 13:30N 41°13' E 001°44'5 9.2
2017-Oct-18 13:00N 41°08' E 001°43'5 9.3
2017-Oct-18 12:30N 41°04' E 001°42'1 1.3
2017-Oct-18 11:24N 41°02' E 001°42'1 2.3
2017-Oct-18 11:00N 41°03' E 001°43'1 2.4
2017-Oct-18 10:30N 41°04' E 001°43'1 1.4
2017-Oct-18 10:00N 41°05' E 001°43'3 2.3
2017-Oct-18 08:45N 41°02' E 001°42'1 2.2
2017-Oct-18 08:21N 41°03' E 001°43'1 2.3
2017-Oct-18 07:56N 41°04' E 001°43'2 1.4
2017-Oct-18 06:35N 41°02' E 001°42'1 2.2
2017-Oct-18 06:10N 41°03' E 001°43'0 2.4
2017-Oct-18 06:00N 41°03' E 001°43'2 3.4
2017-Oct-18 05:30N 41°05' E 001°44'4 9.0
2017-Oct-18 05:00N 41°09' E 001°44'3 6.2
2017-Oct-18 04:30N 41°12' E 001°44'1 1.3
2017-Oct-18 04:00N 41°13' E 001°44'0 0.0
2017-Oct-17 14:29N 41°13' E 001°44'5 9.9
2017-Oct-17 14:01N 41°08' E 001°43'511.0
2017-Oct-17 13:31N 41°03' E 001°42'0 0.2
2017-Oct-17 12:21N 41°03' E 001°43'1 2.3
2017-Oct-17 11:54N 41°04' E 001°43'0 0.6
2017-Oct-17 11:31N 41°04' E 001°43'2 2.0
2017-Oct-17 10:39N 41°02' E 001°42'1 2.2
2017-Oct-17 10:25N 41°03' E 001°43'1 2.3
2017-Oct-17 09:55N 41°04' E 001°43'0 0.6
2017-Oct-17 09:31N 41°04' E 001°43'2 2.3
2017-Oct-17 08:44N 41°02' E 001°42'1 2.2
2017-Oct-17 08:23N 41°03' E 001°43'1 2.2
2017-Oct-17 07:48N 41°04' E 001°43'0 0.7
2017-Oct-17 07:30N 41°04' E 001°43'2 2.1
2017-Oct-17 06:35N 41°02' E 001°42'0 2.1
2017-Oct-17 06:22N 41°02' E 001°43'1 2.3
2017-Oct-17 06:00N 41°03' E 001°43'2 3.2
2017-Oct-17 05:30N 41°05' E 001°44'5 9.2
2017-Oct-17 05:01N 41°09' E 001°43'4 7.0
2017-Oct-17 04:30N 41°13' E 001°44'0 0.1
2017-Oct-17 04:00N 41°13' E 001°44'0 0.0
2017-Oct-16 14:26N 41°13' E 001°44'910.1
2017-Oct-16 13:30N 41°04' E 001°43'2 1.8
2017-Oct-16 12:39N 41°02' E 001°42'0 2.1
2017-Oct-16 12:27N 41°02' E 001°43'1 2.3
2017-Oct-16 11:58N 41°03' E 001°43'0 0.6
2017-Oct-16 11:30N 41°03' E 001°43'2 2.8
2017-Oct-16 10:54N 41°02' E 001°42'1 2.2
2017-Oct-16 10:29N 41°03' E 001°43'1 2.1
2017-Oct-16 10:00N 41°04' E 001°43'2 3.1
2017-Oct-16 09:30N 41°02' E 001°42'0 0.6
2017-Oct-16 08:59N 41°02' E 001°42'1 2.2
2017-Oct-16 08:28N 41°03' E 001°43'1 2.2
2017-Oct-16 08:00N 41°04' E 001°43'2 3.6
2017-Oct-16 07:30N 41°02' E 001°42'0 0.5
2017-Oct-16 06:49N 41°02' E 001°42'1 2.1
2017-Oct-16 06:30N 41°02' E 001°43'1 2.3
2017-Oct-16 05:59N 41°04' E 001°43'2 3.3
2017-Oct-16 05:30N 41°05' E 001°44'4 8.6
2017-Oct-16 05:00N 41°09' E 001°44'3 5.9
2017-Oct-16 04:30N 41°12' E 001°44'1 1.3
2017-Oct-16 04:00N 41°13' E 001°44'  
2017-Oct-13 14:08N 41°13' E 001°44'0 0.3
2017-Oct-13 14:00N 41°13' E 001°44'3 6.9
2017-Oct-13 13:31N 41°10' E 001°44'510.4
2017-Oct-13 13:00N 41°04' E 001°43'3 2.0
2017-Oct-13 11:39N 41°02' E 001°43'0 2.1
2017-Oct-13 11:29N 41°02' E 001°43'1 2.3
2017-Oct-13 10:55N 41°03' E 001°43'1 2.3
2017-Oct-13 10:30N 41°04' E 001°44'1 1.4
2017-Oct-13 10:00N 41°03' E 001°44'2 2.0
2017-Oct-13 09:10N 41°02' E 001°43'1 2.2
2017-Oct-13 08:49N 41°03' E 001°43'1 2.3
2017-Oct-13 08:30N 41°03' E 001°44'2 3.0
2017-Oct-13 08:00N 41°05' E 001°44'3 3.0
2017-Oct-13 06:56N 41°02' E 001°43'1 2.2
2017-Oct-13 06:29N 41°03' E 001°43'1 2.3
2017-Oct-13 05:59N 41°04' E 001°44'2 3.3
2017-Oct-13 05:30N 41°05' E 001°44'5 9.5
2017-Oct-13 05:01N 41°10' E 001°44'2 5.0
2017-Oct-13 04:31N 41°12' E 001°44'1 1.5
2017-Oct-13 04:00N 41°13' E 001°44'  
2017-Oct-10 14:01N 41°11' E 001°44'5 9.9
2017-Oct-10 13:30N 41°06' E 001°44'4 2.2
2017-Oct-10 11:40N 41°02' E 001°43'1 2.3
2017-Oct-10 11:24N 41°03' E 001°43'1 2.4
2017-Oct-10 11:00N 41°04' E 001°44'0 0.6
2017-Oct-10 10:30N 41°04' E 001°44'3 3.8
2017-Oct-10 09:48N 41°02' E 001°43'1 2.1
2017-Oct-10 09:22N 41°03' E 001°43'1 2.3
2017-Oct-10 08:58N 41°03' E 001°44'1 2.2
2017-Oct-10 08:30N 41°04' E 001°44'2 4.0
2017-Oct-10 07:59N 41°02' E 001°43'1 1.1
2017-Oct-10 07:19N 41°02' E 001°43'1 2.1
2017-Oct-10 06:56N 41°02' E 001°43'1 2.3
2017-Oct-10 06:29N 41°03' E 001°44'1 2.5
2017-Oct-10 06:00N 41°04' E 001°44'2 4.2
2017-Oct-10 05:30N 41°07' E 001°44'4 7.6
2017-Oct-10 05:00N 41°10' E 001°44'3 5.1
2017-Oct-10 04:30N 41°13' E 001°44'0 0.3
2017-Oct-10 04:00N 41°13' E 001°44'0 0.0
2017-Oct-09 14:12N 41°13' E 001°44'1 4.5
2017-Oct-09 14:00N 41°12' E 001°44'5 9.1
2017-Oct-09 13:30N 41°08' E 001°43'4 9.0
2017-Oct-09 13:00N 41°03' E 001°42'1 1.0
2017-Oct-09 11:42N 41°02' E 001°42'1 2.1
2017-Oct-09 11:14N 41°03' E 001°43'1 2.3
2017-Oct-09 11:00N 41°03' E 001°43'1 2.2
2017-Oct-09 10:31N 41°04' E 001°43'1 0.7
2017-Oct-09 08:47N 41°03' E 001°43'1 2.5
2017-Oct-09 08:30N 41°04' E 001°43'1 1.0
2017-Oct-09 07:59N 41°04' E 001°43'2 1.5
2017-Oct-09 06:50N 41°03' E 001°43'1 2.3
2017-Oct-09 06:26N 41°03' E 001°44'1 2.4
2017-Oct-09 06:00N 41°04' E 001°44'2 3.7
2017-Oct-09 05:30N 41°06' E 001°44'4 7.8
2017-Oct-09 05:00N 41°10' E 001°44'3 5.4
2017-Oct-09 04:30N 41°13' E 001°44'0 0.3
2017-Oct-09 04:00N 41°13' E 001°44'  

Dump ship's entire track history